Time;durP1;ratioP1;P1;durP2;ratioP2;P2;SDS_P1;SDS_P2;PMS_P1;PMS_P2;Temp;Humidity;BMP_temperature;BMP_pressure;BME280_temperature;BME280_humidity;BME280_pressure;Samples;Min_cycle;Max_cycle;Signal;HPM_P1;HPM_P2
2023/08/31 00:01:39;;;;;;;5.43;2.03;;;12.30;99.90;;;;;;5071746;28;20044;-77
2023/08/31 00:04:08;;;;;;;7.15;1.88;;;12.30;99.90;;;;;;5055089;28;20511;-76
2023/08/31 00:06:33;;;;;;;5.85;1.90;;;12.30;99.90;;;;;;5064531;28;20093;-76
2023/08/31 00:08:59;;;;;;;5.55;1.83;;;12.30;99.90;;;;;;5051767;28;20120;-77
2023/08/31 00:11:25;;;;;;;4.97;1.90;;;12.30;99.90;;;;;;5055711;28;20399;-77
2023/08/31 00:13:52;;;;;;;5.75;1.88;;;12.30;99.90;;;;;;5053118;28;20048;-78
2023/08/31 00:16:17;;;;;;;4.70;1.92;;;12.30;99.90;;;;;;5069386;28;20051;-78
2023/08/31 00:18:44;;;;;;;3.50;1.73;;;12.40;99.90;;;;;;5071399;28;20037;-78
2023/08/31 00:21:10;;;;;;;7.63;2.10;;;12.30;99.90;;;;;;5070101;28;20047;-78
2023/08/31 00:23:37;;;;;;;5.47;1.90;;;12.30;99.90;;;;;;5054996;28;20033;-78
2023/08/31 00:26:02;;;;;;;4.35;1.77;;;12.30;99.90;;;;;;5054665;28;20648;-78
2023/08/31 00:28:28;;;;;;;4.70;1.77;;;12.30;99.90;;;;;;5071360;28;20044;-78
2023/08/31 00:30:54;;;;;;;5.68;1.92;;;12.20;99.90;;;;;;5071688;28;20117;-78
2023/08/31 00:33:20;;;;;;;7.85;2.00;;;12.20;99.90;;;;;;5054538;28;20044;-77
2023/08/31 00:35:48;;;;;;;4.45;1.70;;;12.20;99.90;;;;;;5059152;28;20079;-77
2023/08/31 00:38:14;;;;;;;3.85;1.70;;;12.10;99.90;;;;;;5072577;28;20041;-77
2023/08/31 00:40:46;;;;;;;5.60;1.95;;;12.00;99.90;;;;;;5072467;28;20595;-76
2023/08/31 00:43:15;;;;;;;5.63;1.77;;;12.10;99.90;;;;;;5051576;28;20115;-77
2023/08/31 00:45:40;;;;;;;4.80;1.60;;;12.10;99.90;;;;;;5046555;28;20481;-77
2023/08/31 00:48:06;;;;;;;7.70;1.63;;;12.10;99.90;;;;;;5065094;28;20040;-77
2023/08/31 00:50:32;;;;;;;4.25;1.63;;;12.10;99.90;;;;;;5071409;28;20032;-77
2023/08/31 00:52:58;;;;;;;4.85;1.58;;;12.20;99.90;;;;;;5071249;28;20507;-77
2023/08/31 00:55:24;;;;;;;4.57;1.45;;;12.10;99.90;;;;;;5069981;28;20381;-77
2023/08/31 00:57:50;;;;;;;5.93;1.52;;;12.10;99.90;;;;;;5050254;28;20535;-77
2023/08/31 01:00:16;;;;;;;5.82;2.03;;;12.10;99.90;;;;;;5054471;28;20044;-77
2023/08/31 01:03:05;;;;;;;3.80;1.55;;;12.10;99.90;;;;;;5054783;28;20119;-77
2023/08/31 01:05:53;;;;;;;3.92;1.50;;;12.10;99.90;;;;;;5054353;28;20048;-76
2023/08/31 01:08:35;;;;;;;4.68;1.60;;;12.10;99.90;;;;;;5033946;28;20394;-78
2023/08/31 01:11:13;;;;;;;4.57;1.67;;;12.10;99.90;;;;;;5036122;28;20037;-78
2023/08/31 01:13:44;;;;;;;3.88;1.45;;;12.10;99.90;;;;;;5034746;28;20116;-77
2023/08/31 01:16:11;;;;;;;5.80;2.15;;;12.10;99.90;;;;;;5052271;28;20056;-78
2023/08/31 01:18:40;;;;;;;3.58;1.60;;;12.00;99.90;;;;;;5037888;28;20037;-78
2023/08/31 01:21:24;;;;;;;3.00;1.52;;;12.00;99.90;;;;;;5061017;28;20098;-78
2023/08/31 01:23:57;;;;;;;3.95;1.70;;;11.90;99.90;;;;;;5074378;28;20062;-78
2023/08/31 01:26:23;;;;;;;3.15;1.50;;;11.90;99.90;;;;;;5070312;28;20500;-77
2023/08/31 01:28:50;;;;;;;2.95;1.42;;;11.90;99.90;;;;;;5050998;28;20050;-77
2023/08/31 01:31:16;;;;;;;8.38;1.90;;;11.90;99.90;;;;;;5051258;28;20037;-78
2023/08/31 01:33:42;;;;;;;2.97;1.50;;;11.90;99.90;;;;;;5034296;28;20052;-77
2023/08/31 01:36:27;;;;;;;5.32;1.67;;;11.80;99.90;;;;;;5038942;28;20037;-78
2023/08/31 01:39:03;;;;;;;5.15;1.70;;;11.90;99.90;;;;;;5054714;28;20072;-78
2023/08/31 01:41:31;;;;;;;7.10;1.58;;;11.90;99.90;;;;;;5054338;28;20052;-78
2023/08/31 01:43:58;;;;;;;5.35;1.70;;;11.90;99.90;;;;;;5037400;28;20040;-78
2023/08/31 01:46:24;;;;;;;5.00;1.60;;;11.90;99.90;;;;;;5057492;28;20493;-77
2023/08/31 01:48:49;;;;;;;4.32;1.67;;;11.90;99.90;;;;;;5041136;28;20044;-77
2023/08/31 01:51:17;;;;;;;5.65;1.48;;;11.90;99.90;;;;;;5053912;28;20064;-77
2023/08/31 01:53:44;;;;;;;5.43;1.38;;;11.90;99.90;;;;;;5037322;28;20040;-77
2023/08/31 01:56:10;;;;;;;4.65;1.33;;;12.00;99.90;;;;;;5068177;28;20576;-76
2023/08/31 01:58:35;;;;;;;6.63;1.90;;;12.00;99.90;;;;;;5062463;28;20132;-76
2023/08/31 02:01:01;;;;;;;5.70;1.65;;;12.00;99.90;;;;;;5037144;28;20136;-76
2023/08/31 02:03:27;;;;;;;6.78;1.60;;;12.00;99.90;;;;;;5070350;28;20044;-76
2023/08/31 02:05:52;;;;;;;4.00;1.40;;;12.00;99.90;;;;;;5035891;28;20115;-76
2023/08/31 02:08:18;;;;;;;7.75;2.00;;;11.90;99.90;;;;;;5053836;28;20041;-76
2023/08/31 02:10:46;;;;;;;5.00;1.52;;;11.90;99.90;;;;;;5088005;28;20056;-77
2023/08/31 02:13:11;;;;;;;6.35;1.50;;;11.90;99.90;;;;;;5073431;28;20551;-76
2023/08/31 02:15:40;;;;;;;4.05;1.40;;;11.90;99.90;;;;;;5074638;28;20040;-76
2023/08/31 02:18:07;;;;;;;4.63;1.60;;;11.80;99.90;;;;;;5077055;28;20397;-76
2023/08/31 02:20:32;;;;;;;5.63;1.50;;;11.80;99.90;;;;;;5036085;28;20041;-76
2023/08/31 02:22:58;;;;;;;4.53;1.33;;;11.80;99.90;;;;;;5032018;28;20040;-77
2023/08/31 02:25:23;;;;;;;5.20;1.55;;;11.80;99.90;;;;;;5051633;28;20091;-77
2023/08/31 02:27:49;;;;;;;3.92;1.30;;;11.80;99.90;;;;;;5035900;28;20098;-77
2023/08/31 02:30:14;;;;;;;4.72;1.40;;;11.80;99.90;;;;;;5056447;28;20048;-76
2023/08/31 02:32:40;;;;;;;5.03;1.30;;;11.80;99.90;;;;;;5043671;28;20185;-77
2023/08/31 02:35:07;;;;;;;4.28;1.50;;;11.70;99.90;;;;;;5052789;28;20120;-76
2023/08/31 02:37:32;;;;;;;4.90;1.63;;;11.70;99.90;;;;;;5051691;28;20094;-76
2023/08/31 02:39:58;;;;;;;6.45;1.45;;;11.70;99.90;;;;;;5052872;28;20049;-76
2023/08/31 02:42:23;;;;;;;3.95;1.33;;;11.70;99.90;;;;;;5034586;28;20127;-76
2023/08/31 02:44:53;;;;;;;4.57;1.33;;;11.70;99.90;;;;;;5072551;28;20040;-76
2023/08/31 02:47:19;;;;;;;5.85;1.50;;;11.70;99.90;;;;;;5043182;28;20036;-76
2023/08/31 02:49:44;;;;;;;4.80;1.40;;;11.70;99.90;;;;;;5071424;28;20058;-76
2023/08/31 02:52:10;;;;;;;6.35;1.60;;;11.70;99.90;;;;;;5048667;28;20076;-76
2023/08/31 02:54:36;;;;;;;4.57;1.40;;;11.70;99.90;;;;;;5052583;28;20408;-76
2023/08/31 02:57:02;;;;;;;3.17;1.38;;;11.60;99.90;;;;;;5038055;28;20048;-77
2023/08/31 02:59:27;;;;;;;3.78;1.30;;;11.60;99.90;;;;;;5043721;28;20037;-76
2023/08/31 03:01:53;;;;;;;5.43;1.50;;;11.60;99.90;;;;;;5056207;28;20551;-76
2023/08/31 03:04:18;;;;;;;5.35;1.50;;;11.70;99.90;;;;;;5050488;28;20394;-76
2023/08/31 03:06:45;;;;;;;6.57;1.63;;;11.80;99.90;;;;;;5054842;28;20051;-76
2023/08/31 03:09:11;;;;;;;3.72;1.52;;;11.70;99.90;;;;;;5039485;28;20500;-76
2023/08/31 03:11:36;;;;;;;7.32;1.70;;;11.70;99.90;;;;;;5046503;28;20033;-77
2023/08/31 03:14:02;;;;;;;4.70;1.40;;;11.60;99.90;;;;;;5065461;28;20112;-77
2023/08/31 03:16:27;;;;;;;3.58;1.50;;;11.60;99.90;;;;;;5051293;28;20424;-77
2023/08/31 03:18:53;;;;;;;3.22;1.42;;;11.60;99.90;;;;;;5050772;28;20033;-76
2023/08/31 03:21:19;;;;;;;3.13;1.50;;;11.60;99.90;;;;;;5049457;28;20069;-77
2023/08/31 03:23:45;;;;;;;5.28;1.90;;;11.50;99.90;;;;;;5035529;28;20048;-77
2023/08/31 03:26:11;;;;;;;5.53;2.25;;;11.50;99.90;;;;;;5052069;28;20033;-77
2023/08/31 03:28:38;;;;;;;4.93;1.92;;;11.50;99.90;;;;;;5049669;28;20058;-76
2023/08/31 03:31:03;;;;;;;3.85;1.80;;;11.50;99.90;;;;;;5051311;28;20090;-76
2023/08/31 03:33:29;;;;;;;3.72;1.70;;;11.50;99.90;;;;;;5041272;28;20048;-77
2023/08/31 03:36:00;;;;;;;4.38;2.35;;;11.60;99.90;;;;;;5072200;28;20072;-76
2023/08/31 03:38:26;;;;;;;4.88;1.83;;;11.60;99.90;;;;;;5053222;28;20476;-76
2023/08/31 03:40:55;;;;;;;4.25;2.05;;;11.60;99.90;;;;;;5051048;28;20069;-76
2023/08/31 03:43:21;;;;;;;5.43;1.90;;;11.50;99.90;;;;;;5051842;28;20037;-75
2023/08/31 03:45:46;;;;;;;4.65;2.10;;;11.50;99.90;;;;;;5051093;28;20178;-75
2023/08/31 03:48:12;;;;;;;4.90;1.85;;;11.50;99.90;;;;;;5034419;28;20540;-76
2023/08/31 03:50:37;;;;;;;5.05;2.00;;;11.60;99.90;;;;;;5048753;28;20040;-76
2023/08/31 03:53:03;;;;;;;3.85;1.80;;;11.60;99.90;;;;;;5043512;28;20052;-76
2023/08/31 03:55:29;;;;;;;4.95;1.80;;;11.60;99.90;;;;;;5045738;28;20167;-76
2023/08/31 03:57:54;;;;;;;2.92;1.73;;;11.60;99.90;;;;;;5063143;28;20123;-77
2023/08/31 04:00:20;;;;;;;5.65;2.00;;;11.60;99.90;;;;;;5064494;28;20044;-77
2023/08/31 04:02:46;;;;;;;4.55;1.95;;;11.60;99.90;;;;;;5052882;28;20028;-77
2023/08/31 04:05:11;;;;;;;4.40;2.28;;;11.50;99.90;;;;;;5070781;28;20037;-77
2023/08/31 04:07:37;;;;;;;4.95;2.53;;;11.60;99.90;;;;;;5060037;28;20439;-76
2023/08/31 04:10:04;;;;;;;6.38;2.55;;;11.60;99.90;;;;;;5051368;28;20047;-77
2023/08/31 04:12:30;;;;;;;4.90;2.50;;;11.60;99.90;;;;;;5062012;28;20037;-76
2023/08/31 04:14:56;;;;;;;5.72;2.67;;;11.60;99.90;;;;;;5067885;28;20045;-76
2023/08/31 04:17:21;;;;;;;6.57;2.97;;;11.70;99.90;;;;;;5060356;28;20033;-76
2023/08/31 04:19:47;;;;;;;7.50;2.83;;;11.70;99.90;;;;;;5049508;28;20039;-76
2023/08/31 04:22:13;;;;;;;6.85;2.80;;;11.60;99.90;;;;;;5049458;28;20124;-76
2023/08/31 04:24:38;;;;;;;6.43;3.25;;;11.60;99.90;;;;;;5051394;28;20453;-76
2023/08/31 04:27:04;;;;;;;5.93;3.10;;;11.60;99.90;;;;;;5033618;28;20095;-76
2023/08/31 04:29:30;;;;;;;5.20;3.42;;;11.60;99.90;;;;;;5052329;28;20071;-76
2023/08/31 04:31:55;;;;;;;7.75;3.58;;;11.60;99.90;;;;;;5035901;28;20078;-76
2023/08/31 04:34:21;;;;;;;5.85;3.53;;;11.70;99.90;;;;;;5049826;28;20048;-76
2023/08/31 04:36:46;;;;;;;8.13;3.80;;;11.70;99.90;;;;;;5036428;28;20098;-77
2023/08/31 04:39:12;;;;;;;7.80;3.58;;;11.70;99.90;;;;;;5065615;28;20080;-77
2023/08/31 04:41:37;;;;;;;8.32;4.35;;;11.70;99.90;;;;;;5042661;28;20029;-77
2023/08/31 04:44:03;;;;;;;7.05;4.15;;;11.70;99.90;;;;;;5053778;28;20510;-76
2023/08/31 04:46:29;;;;;;;6.63;4.40;;;11.70;99.90;;;;;;5054794;28;20049;-76
2023/08/31 04:48:54;;;;;;;8.10;4.57;;;11.80;99.90;;;;;;5053426;28;20120;-77
2023/08/31 04:51:30;;;;;;;11.35;4.63;;;11.70;99.90;;;;;;5027384;28;20037;-77
2023/08/31 04:53:56;;;;;;;6.57;4.72;;;11.70;99.90;;;;;;5050789;28;20041;-77
2023/08/31 04:56:21;;;;;;;8.57;4.35;;;11.80;99.90;;;;;;5054952;28;20047;-77
2023/08/31 04:58:47;;;;;;;9.05;4.55;;;11.80;99.90;;;;;;5052707;28;20033;-77
2023/08/31 05:01:12;;;;;;;7.45;4.65;;;11.80;99.90;;;;;;5048053;28;20046;-77
2023/08/31 05:03:38;;;;;;;7.93;4.30;;;11.80;99.90;;;;;;5046293;28;20044;-77
2023/08/31 05:06:04;;;;;;;7.32;4.72;;;11.80;99.90;;;;;;5055073;28;20040;-77
2023/08/31 05:08:30;;;;;;;9.00;4.90;;;11.80;99.90;;;;;;5053479;28;20033;-78
2023/08/31 05:10:56;;;;;;;8.48;4.60;;;11.80;99.90;;;;;;5038324;28;20128;-78
2023/08/31 05:13:21;;;;;;;8.57;4.60;;;11.80;99.90;;;;;;5052539;28;20036;-77
2023/08/31 05:15:47;;;;;;;7.68;4.75;;;11.80;99.90;;;;;;5036696;28;20045;-77
2023/08/31 05:18:12;;;;;;;7.63;4.85;;;11.80;99.90;;;;;;5038334;28;20404;-77
2023/08/31 05:20:38;;;;;;;7.18;4.80;;;11.80;99.90;;;;;;5069966;28;20413;-77
2023/08/31 05:23:04;;;;;;;10.63;5.85;;;11.80;99.90;;;;;;5055739;28;20036;-77
2023/08/31 05:25:29;;;;;;;7.18;4.75;;;11.70;99.90;;;;;;5052412;28;20036;-78
2023/08/31 05:27:55;;;;;;;7.28;5.20;;;11.70;99.90;;;;;;5054119;28;20071;-78
2023/08/31 05:30:20;;;;;;;8.10;5.28;;;11.60;99.90;;;;;;5053422;28;20049;-78
2023/08/31 05:32:46;;;;;;;9.52;5.57;;;11.70;99.90;;;;;;5055802;28;20049;-78
2023/08/31 05:35:12;;;;;;;8.15;5.45;;;11.70;99.90;;;;;;5059912;28;20411;-78
2023/08/31 05:37:37;;;;;;;10.07;5.22;;;11.70;99.90;;;;;;5056314;28;20033;-78
2023/08/31 05:40:10;;;;;;;8.65;4.93;;;11.70;99.90;;;;;;5054189;28;20041;-78
2023/08/31 05:42:35;;;;;;;7.97;5.07;;;11.70;99.90;;;;;;5070304;28;20108;-78
2023/08/31 05:45:01;;;;;;;9.45;5.00;;;11.60;99.90;;;;;;5037563;28;20044;-78
2023/08/31 05:47:27;;;;;;;8.95;4.80;;;11.70;99.90;;;;;;5051647;28;20120;-78
2023/08/31 05:49:52;;;;;;;11.10;5.22;;;11.70;99.90;;;;;;5037355;28;20485;-78
2023/08/31 05:52:18;;;;;;;9.00;5.10;;;11.70;99.90;;;;;;5064213;28;20476;-78
2023/08/31 05:54:43;;;;;;;9.43;4.95;;;11.80;99.90;;;;;;5046853;28;20095;-78
2023/08/31 05:57:09;;;;;;;7.50;4.78;;;11.80;99.90;;;;;;5030474;28;20049;-78
2023/08/31 05:59:34;;;;;;;8.43;4.55;;;11.90;99.90;;;;;;5049848;28;20037;-78
2023/08/31 06:02:00;;;;;;;8.18;4.90;;;11.90;99.90;;;;;;5051892;28;20460;-77
2023/08/31 06:04:25;;;;;;;7.97;4.15;;;12.00;99.90;;;;;;5072052;28;20037;-78
2023/08/31 06:06:53;;;;;;;8.70;4.43;;;12.00;99.90;;;;;;5078553;28;20029;-78
2023/08/31 06:09:20;;;;;;;10.02;4.28;;;12.10;99.90;;;;;;5086002;28;20153;-78
2023/08/31 06:11:45;;;;;;;8.65;4.03;;;12.10;99.90;;;;;;5052754;28;20037;-78
2023/08/31 06:14:11;;;;;;;7.85;4.30;;;12.20;99.90;;;;;;5043719;28;20519;-79
2023/08/31 06:16:36;;;;;;;10.50;4.55;;;12.20;99.90;;;;;;5048235;28;20036;-78
2023/08/31 06:19:03;;;;;;;7.25;3.90;;;12.30;99.90;;;;;;5058156;28;20036;-79
2023/08/31 06:21:28;;;;;;;7.65;3.83;;;12.30;99.90;;;;;;5060430;28;20083;-79
2023/08/31 06:23:54;;;;;;;7.90;4.43;;;12.40;99.90;;;;;;5066634;28;20484;-79
2023/08/31 06:26:20;;;;;;;6.25;3.40;;;12.40;99.90;;;;;;5051589;28;20389;-78
2023/08/31 06:28:45;;;;;;;9.75;4.25;;;12.50;99.90;;;;;;5038610;28;20094;-79
2023/08/31 06:31:11;;;;;;;8.43;3.80;;;12.60;99.90;;;;;;5066567;28;20107;-79
2023/08/31 06:33:36;;;;;;;8.98;3.80;;;12.60;99.90;;;;;;5036537;28;20493;-79
2023/08/31 06:36:02;;;;;;;9.18;3.83;;;12.70;99.90;;;;;;5045499;28;20040;-79
2023/08/31 06:38:28;;;;;;;8.02;2.85;;;12.80;99.90;;;;;;5064707;28;20032;-79
2023/08/31 06:40:58;;;;;;;8.35;3.13;;;12.80;99.90;;;;;;5051709;28;20037;-79
2023/08/31 06:43:23;;;;;;;5.93;2.95;;;12.80;99.90;;;;;;5066602;28;20480;-79
2023/08/31 06:45:49;;;;;;;10.18;3.03;;;13.00;99.90;;;;;;5067126;28;20111;-78
2023/08/31 06:48:14;;;;;;;6.50;2.80;;;13.00;99.90;;;;;;5041901;28;20045;-79
2023/08/31 06:50:40;;;;;;;7.15;2.20;;;13.10;99.90;;;;;;5028640;28;20136;-79
2023/08/31 06:53:06;;;;;;;7.63;2.50;;;13.10;99.90;;;;;;5059547;28;20032;-79
2023/08/31 06:55:31;;;;;;;7.78;2.47;;;13.10;99.90;;;;;;5051574;28;20036;-79
2023/08/31 06:57:57;;;;;;;6.45;2.17;;;13.20;99.90;;;;;;5048164;28;20127;-79
2023/08/31 07:00:23;;;;;;;5.63;1.92;;;13.30;99.90;;;;;;5056319;28;20174;-79
2023/08/31 07:02:48;;;;;;;8.23;2.17;;;13.30;99.90;;;;;;5053543;28;20028;-79
2023/08/31 07:05:14;;;;;;;4.47;1.90;;;13.30;99.90;;;;;;5063086;28;20105;-79
2023/08/31 07:07:39;;;;;;;5.70;2.00;;;13.30;99.90;;;;;;5028426;28;20032;-79
2023/08/31 07:10:05;;;;;;;7.32;2.08;;;13.50;99.90;;;;;;5070799;28;20039;-79
2023/08/31 07:12:31;;;;;;;4.53;1.70;;;13.50;99.90;;;;;;5051766;28;20041;-79
2023/08/31 07:14:57;;;;;;;4.30;1.20;;;13.50;99.90;;;;;;5069092;28;20028;-79
2023/08/31 07:17:22;;;;;;;6.28;1.50;;;13.60;99.90;;;;;;5054995;28;20044;-79
2023/08/31 07:19:48;;;;;;;3.70;1.30;;;13.70;99.90;;;;;;5042189;28;20037;-79
2023/08/31 07:22:13;;;;;;;6.57;1.40;;;13.70;99.90;;;;;;5051701;28;20113;-79
2023/08/31 07:24:39;;;;;;;4.35;1.30;;;13.80;99.90;;;;;;5043421;28;20428;-79
2023/08/31 07:27:06;;;;;;;6.85;1.20;;;13.90;99.90;;;;;;5047865;28;20079;-79
2023/08/31 07:29:31;;;;;;;3.20;1.10;;;14.00;99.90;;;;;;5038073;28;20041;-79
2023/08/31 07:31:58;;;;;;;2.60;1.25;;;14.10;99.90;;;;;;5068543;28;20047;-79
2023/08/31 07:34:23;;;;;;;4.38;1.30;;;14.10;99.90;;;;;;5070789;28;20036;-73
2023/08/31 07:36:49;;;;;;;4.45;1.10;;;14.20;99.90;;;;;;5065762;28;20598;-73
2023/08/31 07:39:17;;;;;;;3.30;1.10;;;14.30;99.90;;;;;;5054531;28;20036;-78
2023/08/31 07:41:43;;;;;;;3.65;1.20;;;14.40;99.90;;;;;;5053667;28;20032;-78
2023/08/31 07:44:08;;;;;;;4.28;1.20;;;14.40;99.90;;;;;;5047731;28;20083;-78
2023/08/31 07:46:34;;;;;;;4.13;1.83;;;14.50;99.90;;;;;;5052215;28;20037;-78
2023/08/31 07:49:00;;;;;;;5.78;1.20;;;14.60;99.90;;;;;;5052318;28;20033;-78
2023/08/31 07:51:25;;;;;;;4.68;1.10;;;14.70;99.90;;;;;;5066768;28;20175;-78
2023/08/31 07:53:51;;;;;;;5.63;1.13;;;14.80;99.90;;;;;;5057751;28;20037;-78
2023/08/31 07:56:17;;;;;;;3.47;1.10;;;14.90;99.90;;;;;;5050495;28;20501;-78
2023/08/31 07:58:42;;;;;;;7.38;1.20;;;14.80;99.90;;;;;;5059531;28;20048;-77
2023/08/31 08:01:08;;;;;;;6.78;1.15;;;14.90;99.90;;;;;;5049749;28;20036;-78
2023/08/31 08:03:33;;;;;;;3.22;1.00;;;15.00;99.90;;;;;;5055336;28;20068;-78
2023/08/31 08:05:59;;;;;;;3.30;1.00;;;15.00;99.90;;;;;;5058026;28;20041;-77
2023/08/31 08:08:25;;;;;;;6.50;1.58;;;15.10;99.90;;;;;;5048534;28;20037;-78
2023/08/31 08:10:54;;;;;;;4.55;0.98;;;15.10;99.90;;;;;;5033078;28;20044;-78
2023/08/31 08:13:20;;;;;;;2.10;0.80;;;15.20;99.90;;;;;;5064645;28;20037;-78
2023/08/31 08:15:46;;;;;;;4.10;0.80;;;15.30;99.90;;;;;;5061645;28;20044;-78
2023/08/31 08:18:12;;;;;;;2.45;0.77;;;15.40;99.90;;;;;;5070544;28;20051;-78
2023/08/31 08:20:37;;;;;;;4.50;0.95;;;15.40;99.90;;;;;;5054950;28;20041;-78
2023/08/31 08:23:03;;;;;;;5.00;1.40;;;15.50;99.90;;;;;;5055091;28;20044;-78
2023/08/31 08:25:28;;;;;;;4.72;1.05;;;15.60;99.90;;;;;;5074158;28;20036;-78
2023/08/31 08:27:54;;;;;;;4.30;1.10;;;15.50;99.90;;;;;;5059004;28;20052;-78
2023/08/31 08:30:20;;;;;;;4.85;1.10;;;15.60;99.90;;;;;;5060929;28;20090;-78
2023/08/31 08:32:45;;;;;;;3.80;1.08;;;15.70;99.90;;;;;;5065605;28;20032;-78
2023/08/31 08:35:11;;;;;;;6.78;1.65;;;15.70;99.90;;;;;;5049348;28;20128;-78
2023/08/31 08:37:36;;;;;;;4.72;1.10;;;15.80;99.90;;;;;;5037468;28;20045;-78
2023/08/31 08:40:04;;;;;;;1.83;1.10;;;15.70;99.90;;;;;;5041749;28;20123;-78
2023/08/31 08:42:31;;;;;;;3.33;0.85;;;15.70;99.90;;;;;;5047544;28;20100;-78
2023/08/31 08:44:57;;;;;;;5.03;0.98;;;15.80;99.90;;;;;;5035321;28;20538;-79
2023/08/31 08:47:25;;;;;;;5.63;1.17;;;16.00;99.90;;;;;;5035824;28;20080;-78
2023/08/31 08:49:52;;;;;;;3.35;0.95;;;16.00;99.90;;;;;;5026852;28;20132;-78
2023/08/31 08:52:18;;;;;;;2.90;0.90;;;16.10;99.90;;;;;;5055113;28;20036;-79
2023/08/31 08:54:44;;;;;;;3.75;0.95;;;16.10;99.90;;;;;;5056289;28;20044;-79
2023/08/31 08:57:10;;;;;;;6.07;0.82;;;16.30;99.90;;;;;;5064524;28;20044;-79
2023/08/31 08:59:35;;;;;;;4.78;0.90;;;16.30;99.90;;;;;;5060083;28;20032;-79
2023/08/31 09:02:01;;;;;;;3.10;0.80;;;16.40;99.90;;;;;;5034442;28;20029;-79
2023/08/31 09:04:30;;;;;;;2.65;0.90;;;16.40;99.90;;;;;;5052652;28;20044;-79
2023/08/31 09:06:55;;;;;;;2.17;0.68;;;16.50;99.90;;;;;;5062248;28;20485;-79
2023/08/31 09:09:21;;;;;;;3.13;0.98;;;16.30;99.90;;;;;;5073191;28;20050;-79
2023/08/31 09:11:46;;;;;;;2.25;0.88;;;16.20;99.90;;;;;;5058387;28;20029;-79
2023/08/31 09:14:19;;;;;;;2.80;0.75;;;16.10;99.90;;;;;;5061571;28;20059;-79
2023/08/31 09:16:50;;;;;;;3.30;0.70;;;16.00;99.90;;;;;;5071361;28;20032;-79
2023/08/31 09:19:23;;;;;;;1.73;0.70;;;16.00;99.90;;;;;;5055150;28;20033;-79
2023/08/31 09:21:51;;;;;;;2.95;0.90;;;16.00;99.90;;;;;;5040610;28;20028;-79
2023/08/31 09:24:19;;;;;;;4.03;0.93;;;16.00;99.90;;;;;;5042646;28;20033;-79
2023/08/31 09:26:48;;;;;;;3.92;0.77;;;16.00;99.90;;;;;;5048741;28;20049;-78
2023/08/31 09:29:14;;;;;;;2.20;0.60;;;15.90;99.90;;;;;;5055767;28;20055;-79
2023/08/31 09:31:44;;;;;;;6.10;1.00;;;15.90;99.90;;;;;;5055263;28;20029;-78
2023/08/31 09:34:10;;;;;;;2.70;0.65;;;15.70;99.90;;;;;;5057656;28;20127;-77
2023/08/31 09:36:36;;;;;;;3.63;0.77;;;15.50;99.90;;;;;;5043163;28;20071;-77
2023/08/31 09:39:02;;;;;;;0.98;0.50;;;15.40;99.90;;;;;;5045554;28;20037;-77
2023/08/31 09:41:28;;;;;;;2.30;0.50;;;15.30;99.90;;;;;;5050126;28;20041;-76
2023/08/31 09:44:13;;;;;;;3.83;0.50;;;15.10;99.90;;;;;;5054889;28;20036;-77
2023/08/31 09:46:39;;;;;;;3.20;0.57;;;14.90;99.90;;;;;;5035469;28;20128;-76
2023/08/31 09:49:05;;;;;;;1.65;0.50;;;14.80;99.90;;;;;;5035586;28;20189;-76
2023/08/31 09:51:32;;;;;;;1.02;0.45;;;14.80;99.90;;;;;;5037724;28;20040;-77
2023/08/31 09:53:59;;;;;;;2.83;1.10;;;15.00;99.90;;;;;;5052924;28;20545;-77
2023/08/31 09:56:29;;;;;;;2.33;0.60;;;15.10;99.90;;;;;;5037500;28;20045;-77
2023/08/31 09:58:54;;;;;;;2.63;0.80;;;15.30;99.90;;;;;;5036926;28;20485;-77
2023/08/31 10:01:20;;;;;;;3.95;0.80;;;15.40;99.90;;;;;;5049626;28;20063;-78
2023/08/31 10:03:46;;;;;;;3.83;0.80;;;15.50;99.90;;;;;;5036869;28;20037;-78
2023/08/31 10:06:12;;;;;;;4.38;0.80;;;15.70;99.90;;;;;;5036957;28;20079;-79
2023/08/31 10:08:38;;;;;;;2.60;0.82;;;15.80;99.90;;;;;;5053138;28;20041;-79
2023/08/31 10:11:06;;;;;;;4.07;0.80;;;15.80;99.90;;;;;;5052537;28;20055;-79
2023/08/31 10:13:36;;;;;;;3.00;1.02;;;16.00;99.90;;;;;;5051127;28;20394;-79
2023/08/31 10:16:04;;;;;;;2.13;0.80;;;16.10;99.90;;;;;;5054537;28;20051;-79
2023/08/31 10:18:31;;;;;;;2.88;0.85;;;16.10;99.90;;;;;;5052936;28;20052;-79
2023/08/31 10:20:57;;;;;;;3.80;0.98;;;16.20;99.90;;;;;;5053264;28;20067;-80
2023/08/31 10:23:23;;;;;;;3.00;0.73;;;16.20;99.90;;;;;;5066121;28;20486;-79
2023/08/31 10:25:54;;;;;;;3.80;0.90;;;16.30;99.90;;;;;;5036874;28;20041;-79
2023/08/31 10:28:20;;;;;;;2.90;0.93;;;16.60;99.90;;;;;;5051650;28;20064;-79
2023/08/31 10:31:09;;;;;;;3.35;1.00;;;16.60;99.90;;;;;;5035515;28;20044;-78
2023/08/31 10:33:45;;;;;;;3.25;0.95;;;16.60;99.90;;;;;;5052680;28;20041;-78
2023/08/31 10:36:15;;;;;;;3.50;1.17;;;16.50;99.90;;;;;;5052756;28;20079;-77
2023/08/31 10:38:42;;;;;;;4.45;1.00;;;16.30;99.90;;;;;;5052366;28;20044;-77
2023/08/31 10:41:07;;;;;;;3.42;0.80;;;16.30;99.90;;;;;;5049691;28;20037;-77
2023/08/31 10:43:45;;;;;;;2.65;0.73;;;16.30;99.90;;;;;;5061193;28;20041;-77
2023/08/31 10:46:29;;;;;;;4.47;1.08;;;16.50;99.90;;;;;;5045443;28;20401;-78
2023/08/31 10:48:56;;;;;;;2.78;0.80;;;16.60;99.90;;;;;;5036169;28;20045;-78
2023/08/31 10:51:23;;;;;;;3.03;0.80;;;16.80;99.90;;;;;;5029141;28;20082;-78
2023/08/31 10:53:49;;;;;;;3.50;0.90;;;17.00;99.90;;;;;;5050761;28;20106;-79
2023/08/31 10:56:19;;;;;;;4.75;0.82;;;17.30;99.90;;;;;;5046443;28;20386;-78
2023/08/31 10:59:03;;;;;;;4.25;0.70;;;17.50;99.90;;;;;;5052951;28;20428;-78
2023/08/31 11:01:57;;;;;;;5.65;1.13;;;17.60;99.90;;;;;;5046025;28;20045;-78
2023/08/31 11:04:25;;;;;;;2.53;0.82;;;17.70;99.90;;;;;;5036022;28;20102;-78
2023/08/31 11:07:14;;;;;;;3.67;0.90;;;17.60;99.90;;;;;;5045476;28;20040;-78
2023/08/31 11:09:40;;;;;;;2.42;0.77;;;17.50;99.90;;;;;;5053673;28;20041;-78
2023/08/31 11:12:05;;;;;;;1.63;0.60;;;17.50;99.90;;;;;;5046056;28;20124;-78
2023/08/31 11:14:31;;;;;;;2.80;0.70;;;17.50;99.90;;;;;;5052408;28;20041;-78
2023/08/31 11:16:57;;;;;;;1.73;0.70;;;17.60;99.90;;;;;;5046451;28;20080;-78
2023/08/31 11:19:22;;;;;;;3.13;0.70;;;17.60;99.90;;;;;;5049129;28;20068;-78
2023/08/31 11:21:48;;;;;;;5.22;1.00;;;17.60;99.90;;;;;;5052840;28;20044;-79
2023/08/31 11:24:16;;;;;;;2.10;0.75;;;17.70;99.90;;;;;;5035363;28;20041;-78
2023/08/31 11:26:42;;;;;;;2.92;0.77;;;17.70;99.90;;;;;;5046070;28;20053;-78
2023/08/31 11:29:07;;;;;;;4.68;1.02;;;17.80;99.90;;;;;;5035630;28;20059;-79
2023/08/31 11:31:41;;;;;;;1.75;0.70;;;17.90;99.90;;;;;;5043593;28;20375;-79
2023/08/31 11:34:11;;;;;;;2.33;0.55;;;17.80;99.90;;;;;;5033940;28;20049;-78
2023/08/31 11:36:37;;;;;;;2.92;0.90;;;17.90;99.90;;;;;;5030747;28;20037;-79
2023/08/31 11:39:03;;;;;;;1.02;0.57;;;17.80;99.90;;;;;;5051957;28;20040;-79
2023/08/31 11:41:40;;;;;;;2.75;0.88;;;17.60;99.90;;;;;;5045859;28;20034;-79
2023/08/31 11:44:06;;;;;;;4.13;1.00;;;17.50;99.90;;;;;;5041194;28;20041;-79
2023/08/31 11:46:32;;;;;;;2.88;0.80;;;17.50;99.90;;;;;;5046239;28;20029;-79
2023/08/31 11:48:59;;;;;;;4.50;1.13;;;17.50;99.90;;;;;;5051345;28;20367;-79
2023/08/31 11:51:29;;;;;;;5.28;1.00;;;17.60;99.90;;;;;;5048317;28;20044;-79
2023/08/31 11:53:56;;;;;;;2.85;1.00;;;17.60;99.90;;;;;;5040286;28;20366;-78
2023/08/31 11:56:21;;;;;;;4.68;0.90;;;17.80;99.90;;;;;;5035267;28;20129;-79
2023/08/31 11:58:50;;;;;;;2.60;0.85;;;17.80;99.90;;;;;;5045747;28;20502;-79
2023/08/31 12:01:21;;;;;;;3.58;0.70;;;18.00;99.90;;;;;;5039384;28;20041;-80
2023/08/31 12:03:47;;;;;;;6.78;0.73;;;18.10;99.90;;;;;;5054792;28;20029;-79
2023/08/31 12:06:18;;;;;;;4.68;1.02;;;18.10;99.90;;;;;;5051879;28;20044;-80
2023/08/31 12:08:43;;;;;;;2.03;0.73;;;18.10;99.90;;;;;;5029103;28;20432;-80
2023/08/31 12:11:09;;;;;;;1.70;0.70;;;18.20;99.90;;;;;;5068338;28;20116;-79
2023/08/31 12:13:35;;;;;;;2.53;0.70;;;18.30;99.90;;;;;;5054517;28;20048;-79
2023/08/31 12:16:01;;;;;;;3.22;0.80;;;18.30;99.90;;;;;;5032301;28;20397;-80
2023/08/31 12:18:32;;;;;;;2.38;0.80;;;18.20;99.90;;;;;;5028725;28;20034;-79
2023/08/31 12:20:58;;;;;;;5.27;0.93;;;18.30;99.90;;;;;;5045710;28;20043;-80
2023/08/31 12:23:24;;;;;;;1.67;0.60;;;18.30;99.90;;;;;;5042753;28;20037;-79
2023/08/31 12:25:50;;;;;;;4.47;0.88;;;18.30;99.90;;;;;;5047521;28;20114;-80
2023/08/31 12:28:17;;;;;;;5.45;1.00;;;18.20;99.90;;;;;;5032159;28;20041;-79
2023/08/31 12:30:52;;;;;;;4.53;0.95;;;17.90;99.90;;;;;;5061351;28;20048;-80
2023/08/31 12:33:19;;;;;;;7.13;1.08;;;17.80;99.90;;;;;;5062226;28;20064;-80
2023/08/31 12:35:45;;;;;;;4.68;0.90;;;17.70;99.90;;;;;;5032748;28;20053;-79
2023/08/31 12:38:11;;;;;;;3.20;0.90;;;17.60;99.90;;;;;;5052756;28;20043;-79
2023/08/31 12:40:38;;;;;;;5.47;0.93;;;17.50;99.90;;;;;;5028262;28;20483;-78
2023/08/31 12:43:05;;;;;;;7.32;0.90;;;17.40;99.90;;;;;;5070175;28;20066;-78
2023/08/31 12:45:30;;;;;;;2.90;0.85;;;17.00;99.90;;;;;;5046124;28;20408;-78